createdAt,value
2023-02-09T00:01:50.880Z,-1.67
2023-02-09T00:04:19.030Z,-1.53
2023-02-09T00:06:47.221Z,-1.56
2023-02-09T00:09:15.768Z,-1.71
2023-02-09T00:12:04.814Z,-1.61
2023-02-09T00:14:34.669Z,-1.63
2023-02-09T00:17:03.511Z,-1.65
2023-02-09T00:19:33.417Z,-1.97
2023-02-09T00:22:02.217Z,-2.42
2023-02-09T00:24:34.045Z,-1.70
2023-02-09T00:27:06.354Z,-1.74
2023-02-09T00:29:34.915Z,-1.61
2023-02-09T00:32:03.322Z,-1.73
2023-02-09T00:34:31.487Z,-1.85
2023-02-09T00:36:59.876Z,-1.88
2023-02-09T00:39:28.080Z,-1.93
2023-02-09T00:42:08.543Z,-2.00
2023-02-09T00:44:40.660Z,-2.03
2023-02-09T00:47:10.221Z,-2.12
2023-02-09T00:49:40.117Z,-2.14
2023-02-09T00:52:09.925Z,-2.30
2023-02-09T00:54:38.398Z,-2.27
2023-02-09T00:57:06.545Z,-2.34
2023-02-09T00:59:35.758Z,-2.36
2023-02-09T01:02:05.375Z,-2.39
2023-02-09T01:04:33.993Z,-2.46
2023-02-09T01:07:02.371Z,-2.55
2023-02-09T01:09:30.695Z,-2.46
2023-02-09T01:11:58.803Z,-2.61
2023-02-09T01:14:26.907Z,-2.49
2023-02-09T01:16:55.115Z,-2.53
2023-02-09T01:19:24.693Z,-2.43
2023-02-09T01:21:52.739Z,-2.59
2023-02-09T01:24:20.801Z,-2.60
2023-02-09T01:26:48.858Z,-2.65
2023-02-09T01:29:19.494Z,-2.87
2023-02-09T01:31:48.075Z,-2.72
2023-02-09T01:34:18.751Z,-2.86
2023-02-09T01:36:48.488Z,-3.04
2023-02-09T01:39:16.882Z,-2.86
2023-02-09T01:41:45.158Z,-2.86
2023-02-09T01:44:55.495Z,-2.87
2023-02-09T01:47:23.756Z,-3.06
2023-02-09T01:49:52.428Z,-3.08
2023-02-09T01:52:26.765Z,-3.53
2023-02-09T01:54:58.131Z,-3.16
2023-02-09T01:57:30.920Z,-3.45
2023-02-09T02:00:02.766Z,-3.20
2023-02-09T02:02:31.501Z,-3.31
2023-02-09T02:05:00.106Z,-3.19
2023-02-09T02:07:34.910Z,-3.20
2023-02-09T02:10:04.039Z,-3.31
2023-02-09T02:12:33.955Z,-4.00
2023-02-09T02:15:02.068Z,-3.34
2023-02-09T02:17:43.967Z,-3.39
2023-02-09T02:20:46.816Z,-3.37
2023-02-09T02:23:26.545Z,-3.40
2023-02-09T02:26:26.094Z,-3.47
2023-02-09T02:29:15.061Z,-3.50
2023-02-09T02:32:03.958Z,-3.50
2023-02-09T02:34:42.967Z,-3.69
2023-02-09T02:37:20.495Z,-3.65
2023-02-09T02:39:58.848Z,-3.57
2023-02-09T02:42:52.900Z,-3.58
2023-02-09T02:45:35.422Z,-3.58
2023-02-09T02:48:15.242Z,-3.63
2023-02-09T02:50:49.097Z,-3.85
2023-02-09T02:53:19.497Z,-3.72
2023-02-09T02:55:50.508Z,-3.74
2023-02-09T02:58:22.307Z,-3.75
2023-02-09T03:00:53.384Z,-3.76
2023-02-09T03:03:25.547Z,-3.93
2023-02-09T03:05:54.831Z,-3.80
2023-02-09T03:08:22.972Z,-3.86
2023-02-09T03:10:51.288Z,-3.85
2023-02-09T03:13:40.129Z,-3.91
2023-02-09T03:16:19.754Z,-4.09
2023-02-09T03:19:05.207Z,-3.98
2023-02-09T03:21:42.915Z,-4.39
2023-02-09T03:24:17.027Z,-4.78
2023-02-09T03:26:50.958Z,-4.37
2023-02-09T03:29:21.190Z,-4.33
2023-02-09T03:31:50.257Z,-5.23
2023-02-09T03:34:20.067Z,-4.09
2023-02-09T03:36:52.681Z,-4.03
2023-02-09T03:39:20.994Z,-4.18
2023-02-09T03:41:49.194Z,-4.23
2023-02-09T03:44:29.297Z,-4.21
2023-02-09T03:46:59.662Z,-4.21
2023-02-09T03:49:31.781Z,-4.21
2023-02-09T03:52:00.848Z,-4.26
2023-02-09T03:54:29.336Z,-4.27
2023-02-09T03:56:57.805Z,-4.39
2023-02-09T03:59:26.956Z,-4.32
2023-02-09T04:01:56.108Z,-4.98
2023-02-09T04:04:24.892Z,-5.19
2023-02-09T04:06:56.218Z,-4.62
2023-02-09T04:09:24.809Z,-4.44
2023-02-09T04:11:52.979Z,-4.44
2023-02-09T04:14:21.099Z,-4.44
2023-02-09T04:16:49.263Z,-4.48
2023-02-09T04:19:17.483Z,-4.48
2023-02-09T04:21:45.632Z,-4.47
2023-02-09T04:24:15.194Z,-4.51
2023-02-09T04:26:43.313Z,-5.52
2023-02-09T04:29:11.483Z,-4.55
2023-02-09T04:31:39.608Z,-4.55
2023-02-09T04:34:07.731Z,-4.46
2023-02-09T04:36:35.915Z,-4.60
2023-02-09T04:39:04.194Z,-4.56
2023-02-09T04:41:33.746Z,-4.55
2023-02-09T04:44:01.817Z,-4.45
2023-02-09T04:46:29.947Z,-4.52
2023-02-09T04:48:58.065Z,-4.54
2023-02-09T04:51:26.217Z,-4.99
2023-02-09T04:53:54.423Z,-4.73
2023-02-09T04:56:22.533Z,-4.76
2023-02-09T04:59:09.725Z,-4.73
2023-02-09T05:01:37.858Z,-4.70
2023-02-09T05:04:06.177Z,-4.75
2023-02-09T05:06:34.298Z,-4.80
2023-02-09T05:09:02.407Z,-4.84
2023-02-09T05:11:30.539Z,-4.78
2023-02-09T05:14:00.122Z,-4.81
2023-02-09T05:16:28.257Z,-4.87
2023-02-09T05:18:56.415Z,-4.86
2023-02-09T05:21:24.618Z,-4.89
2023-02-09T05:23:52.766Z,-4.83
2023-02-09T05:26:20.848Z,-4.82
2023-02-09T05:28:49.009Z,-4.86
2023-02-09T05:31:19.177Z,-4.89
2023-02-09T05:33:47.449Z,-4.84
2023-02-09T05:36:15.573Z,-5.28
2023-02-09T05:38:43.788Z,-4.96
2023-02-09T05:41:35.391Z,-5.03
2023-02-09T05:44:03.619Z,-5.49
2023-02-09T05:46:33.304Z,-5.00
2023-02-09T05:49:01.346Z,-4.96
2023-02-09T05:51:29.440Z,-4.78
2023-02-09T05:53:57.542Z,-4.85
2023-02-09T05:56:25.631Z,-4.95
2023-02-09T05:58:53.732Z,-5.00
2023-02-09T06:01:21.806Z,-5.02
2023-02-09T06:03:51.417Z,-5.82
2023-02-09T06:06:19.598Z,-5.05
2023-02-09T06:08:47.738Z,-5.22
2023-02-09T06:11:15.859Z,-4.90
2023-02-09T06:13:43.958Z,-5.06
2023-02-09T06:16:12.467Z,-5.03
2023-02-09T06:18:40.581Z,-4.86
2023-02-09T06:21:11.763Z,-4.89
2023-02-09T06:23:40.024Z,-4.85
2023-02-09T06:26:09.324Z,-5.01
2023-02-09T06:28:37.811Z,-4.94
2023-02-09T06:31:06.685Z,-4.84
2023-02-09T06:33:35.990Z,-4.92
2023-02-09T06:36:05.161Z,-4.99
2023-02-09T06:38:35.964Z,-5.02
2023-02-09T06:41:04.550Z,-5.07
2023-02-09T06:43:32.813Z,-4.78
2023-02-09T06:46:05.825Z,-4.81
2023-02-09T06:48:34.167Z,-4.61
2023-02-09T06:51:02.570Z,-4.51
2023-02-09T06:53:30.782Z,-5.10
2023-02-09T06:56:02.937Z,-4.56
2023-02-09T06:58:33.287Z,-4.51
2023-02-09T07:01:04.093Z,-4.40
2023-02-09T07:03:32.318Z,-4.46
2023-02-09T07:06:04.843Z,-4.12
2023-02-09T07:08:33.007Z,-4.14
2023-02-09T07:11:05.062Z,-4.12
2023-02-09T07:13:33.892Z,-3.82
2023-02-09T07:16:03.965Z,-3.62
2023-02-09T07:18:32.699Z,-3.49
2023-02-09T07:21:03.124Z,-3.38
2023-02-09T07:23:31.849Z,-3.30
2023-02-09T07:26:05.329Z,-3.17
2023-02-09T07:28:33.874Z,-3.16
2023-02-09T07:31:07.085Z,-2.95
2023-02-09T07:33:35.813Z,-2.80
2023-02-09T07:36:05.502Z,-2.74
2023-02-09T07:38:34.204Z,-2.60
2023-02-09T07:41:05.591Z,-2.48
2023-02-09T07:43:34.573Z,-3.63
2023-02-09T07:46:03.826Z,-2.28
2023-02-09T07:48:32.543Z,-2.19
2023-02-09T07:51:01.119Z,-2.07
2023-02-09T07:53:29.996Z,-1.98
2023-02-09T07:55:58.564Z,-1.84
2023-02-09T07:58:28.239Z,-1.77
2023-02-09T08:00:57.443Z,-1.78
2023-02-09T08:03:26.866Z,-2.27
2023-02-09T08:06:02.332Z,-1.71
2023-02-09T08:08:30.615Z,-1.60
2023-02-09T08:10:59.994Z,-1.56
2023-02-09T08:13:35.061Z,-1.57
2023-02-09T08:16:05.950Z,-1.53
2023-02-09T08:18:37.702Z,-1.74
2023-02-09T08:21:07.700Z,-1.26
2023-02-09T08:23:39.501Z,-1.56
2023-02-09T08:26:11.052Z,-1.01
2023-02-09T08:28:45.102Z,-1.01
2023-02-09T08:31:14.179Z,-0.80
2023-02-09T08:33:42.639Z,-1.83
2023-02-09T08:36:11.686Z,-0.76
2023-02-09T08:38:40.033Z,-0.65
2023-02-09T08:41:10.423Z,-0.51
2023-02-09T08:43:38.661Z,-0.96
2023-02-09T08:46:10.319Z,-0.32
2023-02-09T08:48:40.337Z,-0.22
2023-02-09T08:51:09.510Z,-0.16
2023-02-09T08:53:38.114Z,-0.09
2023-02-09T08:56:06.739Z,-0.16
2023-02-09T08:58:35.070Z,-0.19
2023-02-09T09:01:03.631Z,-0.12
2023-02-09T09:03:33.682Z,0.04
2023-02-09T09:06:03.504Z,0.06
2023-02-09T09:08:32.579Z,0.10
2023-02-09T09:11:00.783Z,0.15
2023-02-09T09:13:29.147Z,0.15
2023-02-09T09:15:57.430Z,0.28
2023-02-09T09:18:27.192Z,0.33
2023-02-09T09:20:57.564Z,0.40
2023-02-09T09:23:25.844Z,0.46
2023-02-09T09:25:54.003Z,0.26
2023-02-09T09:28:22.497Z,0.58
2023-02-09T09:30:50.706Z,-0.12
2023-02-09T09:33:18.980Z,0.74
2023-02-09T09:35:47.464Z,0.86
2023-02-09T09:38:17.211Z,1.02
2023-02-09T09:40:47.314Z,1.17
2023-02-09T09:43:24.100Z,1.05
2023-02-09T09:45:52.369Z,1.53
2023-02-09T09:48:25.598Z,1.49
2023-02-09T09:50:57.585Z,1.70
2023-02-09T09:53:33.331Z,1.78
2023-02-09T09:56:06.521Z,1.82
2023-02-09T09:58:36.152Z,1.66
2023-02-09T10:01:04.431Z,1.71
2023-02-09T10:03:32.767Z,2.11
2023-02-09T10:06:11.072Z,2.10
2023-02-09T10:08:46.419Z,2.09
2023-02-09T10:11:16.173Z,1.82
2023-02-09T10:13:46.074Z,2.17
2023-02-09T10:16:18.146Z,1.16
2023-02-09T10:18:46.385Z,2.21
2023-02-09T10:21:17.386Z,2.27
2023-02-09T10:23:49.391Z,2.13
2023-02-09T10:26:25.760Z,1.86
2023-02-09T10:28:55.897Z,1.75
2023-02-09T10:31:27.463Z,1.90
2023-02-09T10:33:59.440Z,1.67
2023-02-09T10:36:32.050Z,2.09
2023-02-09T10:39:16.975Z,1.72
2023-02-09T10:41:47.596Z,1.70
2023-02-09T10:44:23.035Z,1.66
2023-02-09T10:47:09.049Z,0.74
2023-02-09T10:49:39.953Z,1.17
2023-02-09T10:52:16.057Z,1.29
2023-02-09T10:54:49.886Z,1.34
2023-02-09T10:57:27.884Z,1.44
2023-02-09T10:59:58.056Z,1.47
2023-02-09T11:02:37.767Z,1.64
2023-02-09T11:05:30.025Z,1.58
2023-02-09T11:08:04.459Z,1.84
2023-02-09T11:10:37.915Z,1.98
2023-02-09T11:13:18.798Z,1.90
2023-02-09T11:15:58.419Z,2.43
2023-02-09T11:18:30.137Z,2.39
2023-02-09T11:21:05.952Z,2.24
2023-02-09T11:23:49.477Z,2.65
2023-02-09T11:26:35.014Z,2.78
2023-02-09T11:29:10.751Z,2.79
2023-02-09T11:31:51.881Z,2.57
2023-02-09T11:34:41.116Z,2.62
2023-02-09T11:37:24.570Z,2.65
2023-02-09T11:40:00.442Z,2.95
2023-02-09T11:42:45.930Z,2.86
2023-02-09T11:45:20.766Z,3.27
2023-02-09T11:48:03.878Z,2.96
2023-02-09T11:50:37.284Z,3.14
2023-02-09T11:53:13.356Z,3.23
2023-02-09T11:55:48.074Z,3.22
2023-02-09T11:58:30.770Z,3.27
2023-02-09T12:01:14.964Z,3.36
2023-02-09T12:03:54.963Z,3.48
2023-02-09T12:06:25.218Z,3.56
2023-02-09T12:09:08.896Z,3.72
2023-02-09T12:11:50.694Z,3.96
2023-02-09T12:14:39.857Z,3.93
2023-02-09T12:17:14.613Z,3.86
2023-02-09T12:19:46.482Z,4.01
2023-02-09T12:22:46.856Z,4.18
2023-02-09T12:25:21.439Z,4.14
2023-02-09T12:28:18.265Z,3.88
2023-02-09T12:31:10.131Z,4.16
2023-02-09T12:33:40.419Z,4.21
2023-02-09T12:36:30.750Z,4.43
2023-02-09T12:39:06.204Z,4.56
2023-02-09T12:42:12.892Z,4.60
2023-02-09T12:44:55.452Z,4.81
2023-02-09T12:48:00.304Z,4.90
2023-02-09T12:50:49.189Z,4.83
2023-02-09T12:53:45.760Z,4.83
2023-02-09T12:56:34.615Z,5.08
2023-02-09T12:59:17.917Z,5.13
2023-02-09T13:02:16.029Z,5.28
2023-02-09T13:04:57.021Z,5.52
2023-02-09T13:07:41.245Z,5.69
2023-02-09T13:10:21.905Z,5.78
2023-02-09T13:12:56.140Z,5.79
2023-02-09T13:15:28.402Z,5.65
2023-02-09T13:18:07.549Z,5.49
2023-02-09T13:20:56.981Z,5.14
2023-02-09T13:23:34.960Z,5.33
2023-02-09T13:26:21.530Z,5.71
2023-02-09T13:28:49.919Z,4.71
2023-02-09T13:31:27.228Z,5.81
2023-02-09T13:34:02.911Z,6.11
2023-02-09T13:36:42.625Z,6.19
2023-02-09T13:39:24.807Z,6.95
2023-02-09T13:41:54.853Z,7.05
2023-02-09T13:44:25.346Z,7.09
2023-02-09T13:46:56.036Z,7.11
2023-02-09T13:49:25.242Z,7.36
2023-02-09T13:52:14.738Z,8.26
2023-02-09T13:54:43.903Z,9.35
2023-02-09T13:57:18.499Z,10.69
2023-02-09T13:59:46.793Z,11.89
2023-02-09T14:02:21.311Z,11.76
2023-02-09T14:04:53.264Z,12.01
2023-02-09T14:07:26.845Z,12.44
2023-02-09T14:09:59.410Z,14.04
2023-02-09T14:12:55.790Z,14.69
2023-02-09T14:15:59.884Z,15.16
2023-02-09T14:18:34.092Z,14.77
2023-02-09T14:21:29.888Z,15.16
2023-02-09T14:24:26.819Z,14.62
2023-02-09T14:26:59.443Z,14.57
2023-02-09T14:29:29.411Z,14.70
2023-02-09T14:31:59.576Z,14.54
2023-02-09T14:34:34.210Z,12.46
2023-02-09T14:37:04.646Z,10.57
2023-02-09T14:39:34.180Z,9.23
2023-02-09T14:42:17.838Z,7.98
2023-02-09T14:44:55.080Z,6.96
2023-02-09T14:47:30.870Z,6.39
2023-02-09T14:49:59.718Z,5.85
2023-02-09T14:52:29.857Z,5.50
2023-02-09T14:55:01.556Z,4.86
2023-02-09T14:57:32.129Z,4.38
2023-02-09T15:00:00.382Z,3.81
2023-02-09T15:02:29.418Z,3.65
2023-02-09T15:04:57.680Z,3.45
2023-02-09T15:07:32.431Z,3.25
2023-02-09T15:10:02.466Z,3.00
2023-02-09T15:12:30.908Z,2.92
2023-02-09T15:15:01.211Z,2.86
2023-02-09T15:17:31.605Z,2.75
2023-02-09T15:19:59.933Z,2.72
2023-02-09T15:22:28.202Z,2.22
2023-02-09T15:24:56.271Z,2.56
2023-02-09T15:27:33.313Z,2.34
2023-02-09T15:30:04.327Z,2.07
2023-02-09T15:32:32.979Z,1.81
2023-02-09T15:35:01.324Z,1.61
2023-02-09T15:37:33.975Z,1.52
2023-02-09T15:40:14.948Z,1.37
2023-02-09T15:43:01.954Z,1.24
2023-02-09T15:45:49.173Z,1.53
2023-02-09T15:48:17.308Z,1.65
2023-02-09T15:50:50.760Z,1.55
2023-02-09T15:53:21.459Z,1.37
2023-02-09T15:55:50.092Z,1.50
2023-02-09T15:58:35.425Z,1.35
2023-02-09T16:01:03.850Z,1.22
2023-02-09T16:03:33.015Z,1.24
2023-02-09T16:06:04.593Z,0.63
2023-02-09T16:08:34.532Z,1.21
2023-02-09T16:11:09.534Z,1.06
2023-02-09T16:13:39.445Z,1.01
2023-02-09T16:16:16.744Z,0.86
2023-02-09T16:18:45.946Z,0.81
2023-02-09T16:21:21.285Z,0.68
2023-02-09T16:23:49.787Z,0.35
2023-02-09T16:26:19.396Z,0.45
2023-02-09T16:28:49.588Z,-0.04
2023-02-09T16:31:17.859Z,0.30
2023-02-09T16:33:46.614Z,0.18
2023-02-09T16:36:17.642Z,0.10
2023-02-09T16:38:46.719Z,-0.14
2023-02-09T16:41:31.192Z,0.06
2023-02-09T16:44:00.981Z,0.02
2023-02-09T16:46:32.067Z,0.01
2023-02-09T16:49:02.852Z,-0.01
2023-02-09T16:51:31.124Z,0.02
2023-02-09T16:53:59.467Z,-0.79
2023-02-09T16:56:28.066Z,-0.14
2023-02-09T16:58:56.466Z,-0.65
2023-02-09T17:01:26.171Z,-0.15
2023-02-09T17:03:57.658Z,-0.25
2023-02-09T17:06:29.749Z,-0.30
2023-02-09T17:08:58.848Z,-0.37
2023-02-09T17:11:28.992Z,-0.41
2023-02-09T17:13:57.181Z,-0.58
2023-02-09T17:16:36.312Z,-0.51
2023-02-09T17:19:06.584Z,-0.57
2023-02-09T17:21:36.350Z,-1.52
2023-02-09T17:24:05.687Z,-0.66
2023-02-09T17:26:34.049Z,-0.71
2023-02-09T17:29:02.370Z,-0.69
2023-02-09T17:31:47.078Z,-0.69
2023-02-09T17:34:20.806Z,-0.72
2023-02-09T17:36:49.225Z,-0.76
2023-02-09T17:39:19.117Z,-0.93
2023-02-09T17:41:50.175Z,-0.76
2023-02-09T17:44:31.901Z,-0.79
2023-02-09T17:47:11.110Z,-1.62
2023-02-09T17:49:39.423Z,-0.77
2023-02-09T17:52:07.622Z,-0.83
2023-02-09T17:54:35.882Z,-0.92
2023-02-09T17:57:04.297Z,-1.13
2023-02-09T17:59:32.511Z,-1.13
2023-02-09T18:02:00.799Z,-1.04
2023-02-09T18:04:31.868Z,-1.02
2023-02-09T18:07:00.157Z,-1.01
2023-02-09T18:09:28.462Z,-1.02
2023-02-09T18:12:00.003Z,-1.04
2023-02-09T18:14:29.380Z,-1.18
2023-02-09T18:16:57.806Z,-1.06
2023-02-09T18:19:26.294Z,-1.40
2023-02-09T18:21:58.391Z,-1.19
2023-02-09T18:24:28.543Z,-1.08
2023-02-09T18:26:56.871Z,-1.04
2023-02-09T18:29:29.360Z,-1.13
2023-02-09T18:31:58.319Z,-1.24
2023-02-09T18:34:26.616Z,-1.33
2023-02-09T18:36:56.591Z,-1.21
2023-02-09T18:39:25.296Z,-1.27
2023-02-09T18:41:55.321Z,-1.39
2023-02-09T18:44:29.129Z,-1.63
2023-02-09T18:46:57.849Z,-2.29
2023-02-09T18:49:26.229Z,-1.73
2023-02-09T18:51:57.086Z,-1.57
2023-02-09T18:54:27.700Z,-2.91
2023-02-09T18:56:56.747Z,-1.57
2023-02-09T18:59:29.312Z,-1.63
2023-02-09T19:01:57.897Z,-1.67
2023-02-09T19:04:26.224Z,-1.67
2023-02-09T19:06:56.125Z,-1.78
2023-02-09T19:09:24.348Z,-1.87
2023-02-09T19:11:52.632Z,-2.67
2023-02-09T19:14:38.984Z,-1.72
2023-02-09T19:17:09.795Z,-1.77
2023-02-09T19:19:38.884Z,-1.64
2023-02-09T19:22:09.256Z,-1.66
2023-02-09T19:24:37.562Z,-2.73
2023-02-09T19:27:09.508Z,-1.81
2023-02-09T19:29:41.292Z,-1.90
2023-02-09T19:32:09.881Z,-2.09
2023-02-09T19:34:41.098Z,-1.95
2023-02-09T19:37:13.646Z,-2.63
2023-02-09T19:39:41.963Z,-2.34
2023-02-09T19:42:10.236Z,-2.02
2023-02-09T19:44:38.533Z,-1.99
2023-02-09T19:47:07.124Z,-2.03
2023-02-09T19:49:35.432Z,-2.17
2023-02-09T19:52:03.881Z,-2.21
2023-02-09T19:54:33.949Z,-2.22
2023-02-09T19:57:04.333Z,-2.24
2023-02-09T19:59:32.749Z,-2.23
2023-02-09T20:02:01.239Z,-2.47
2023-02-09T20:04:29.581Z,-2.21
2023-02-09T20:06:57.782Z,-2.13
2023-02-09T20:09:26.031Z,-2.04
2023-02-09T20:14:25.051Z,-2.20
2023-02-09T20:16:54.338Z,-2.49
2023-02-09T20:19:24.161Z,-2.75
2023-02-09T20:21:52.511Z,-3.48
2023-02-09T20:24:20.784Z,-2.34
2023-02-09T20:26:49.175Z,-2.30
2023-02-09T20:29:19.590Z,-2.25
2023-02-09T20:31:47.790Z,-2.72
2023-02-09T20:34:17.731Z,-2.44
2023-02-09T20:36:48.201Z,-2.56
2023-02-09T20:39:17.707Z,-2.39
2023-02-09T20:42:06.764Z,-2.44
2023-02-09T20:44:54.069Z,-2.68
2023-02-09T20:47:22.473Z,-2.66
2023-02-09T20:49:50.787Z,-2.56
2023-02-09T20:52:19.321Z,-3.05
2023-02-09T20:54:47.521Z,-2.59
2023-02-09T20:57:15.738Z,-2.81
2023-02-09T20:59:45.447Z,-2.60
2023-02-09T21:02:15.225Z,-2.63
2023-02-09T21:04:43.516Z,-2.64
2023-02-09T21:07:11.696Z,-2.61
2023-02-09T21:09:40.113Z,-2.51
2023-02-09T21:12:08.402Z,-2.63
2023-02-09T21:14:43.945Z,-2.65
2023-02-09T21:17:14.173Z,-2.82
2023-02-09T21:19:42.707Z,-2.68
2023-02-09T21:22:11.105Z,-3.14
2023-02-09T21:24:39.698Z,-2.87
2023-02-09T21:27:08.313Z,-2.70
2023-02-09T21:29:37.067Z,-2.71
2023-02-09T21:32:07.372Z,-2.76
2023-02-09T21:34:37.052Z,-3.07
2023-02-09T21:37:07.960Z,-2.85
2023-02-09T21:39:36.191Z,-2.91
2023-02-09T21:42:21.869Z,-2.87
2023-02-09T21:44:50.115Z,-2.88
2023-02-09T21:47:18.286Z,-2.90
2023-02-09T21:49:47.965Z,-2.93
2023-02-09T21:52:16.154Z,-2.94
2023-02-09T21:54:44.354Z,-3.14
2023-02-09T21:57:12.864Z,-2.98
2023-02-09T21:59:41.066Z,-3.02
2023-02-09T22:02:09.708Z,-3.13
2023-02-09T22:04:40.332Z,-2.97
2023-02-09T22:07:10.476Z,-2.97
2023-02-09T22:09:39.223Z,-3.05
2023-02-09T22:12:07.945Z,-3.25
2023-02-09T22:14:36.145Z,-2.96
2023-02-09T22:17:04.712Z,-2.99
2023-02-09T22:19:33.052Z,-3.02
2023-02-09T22:22:01.689Z,-3.40
2023-02-09T22:24:34.792Z,-3.23
2023-02-09T22:27:03.308Z,-3.26
2023-02-09T22:29:33.409Z,-3.45
2023-02-09T22:32:01.719Z,-3.34
2023-02-09T22:34:30.060Z,-3.52
2023-02-09T22:36:58.269Z,-3.35
2023-02-09T22:39:26.505Z,-3.38
2023-02-09T22:41:59.472Z,-3.89
2023-02-09T22:44:30.495Z,-3.39
2023-02-09T22:46:58.805Z,-3.99
2023-02-09T22:49:26.979Z,-3.40
2023-02-09T22:51:55.279Z,-3.42
2023-02-09T22:54:23.602Z,-3.44
2023-02-09T22:56:52.172Z,-3.45
2023-02-09T22:59:21.911Z,-3.47
2023-02-09T23:01:50.058Z,-3.49
2023-02-09T23:04:18.305Z,-3.49
2023-02-09T23:06:46.987Z,-3.62
2023-02-09T23:09:15.785Z,-3.57
2023-02-09T23:11:44.418Z,-3.64
2023-02-09T23:14:13.728Z,-3.94
2023-02-09T23:16:45.582Z,-3.51
2023-02-09T23:19:16.238Z,-3.87
2023-02-09T23:21:46.123Z,-3.64
2023-02-09T23:24:16.161Z,-3.59
2023-02-09T23:26:44.800Z,-3.67
2023-02-09T23:29:15.184Z,-3.68
2023-02-09T23:31:46.152Z,-3.78
2023-02-09T23:34:16.543Z,-3.72
2023-02-09T23:36:44.797Z,-3.72
2023-02-09T23:39:15.436Z,-3.74
2023-02-09T23:41:43.856Z,-3.74
2023-02-09T23:44:12.404Z,-3.61
2023-02-09T23:46:40.779Z,-3.61
2023-02-09T23:49:10.582Z,-3.58
2023-02-09T23:51:39.156Z,-3.75
2023-02-09T23:54:08.338Z,-3.82
2023-02-09T23:56:38.189Z,-4.15
2023-02-09T23:59:07.521Z,-3.85
